Terminal Aerodrome Forecast
Issued by NWS

Home | Current Version | Previous Version | Text Only | Print | Product List | Glossary On
Versions: 1 2 3 4 5 6 7 8 9 10 11 12 13 14 15 16 17 18 19 20 21 22 23 24 25 26 27 28 29
000
FTUS46 KLOX 261100
TAFSBP
TAF
KSBP 261138Z 2612/2712 34008KT P6SM SCT020 SCT100
     FM261800 31011KT P6SM SKC
     FM262100 31017G23KT P6SM SKC
     FM270400 31006KT P6SM SKC=

USA.gov is the U.S. government's official web portal to all federal, state and local government web resources and services.